createdAt,value
2022-10-10T00:01:47.720Z,99.90
2022-10-10T00:04:17.630Z,99.90
2022-10-10T00:06:44.500Z,99.90
2022-10-10T00:09:14.564Z,99.90
2022-10-10T00:11:44.494Z,99.90
2022-10-10T00:14:11.595Z,99.90
2022-10-10T00:16:41.763Z,99.90
2022-10-10T00:19:08.843Z,99.90
2022-10-10T00:21:38.865Z,99.90
2022-10-10T00:24:11.846Z,99.90
2022-10-10T00:26:38.768Z,99.90
2022-10-10T00:29:06.725Z,99.90
2022-10-10T00:31:33.844Z,99.90
2022-10-10T00:34:03.835Z,99.90
2022-10-10T00:36:33.869Z,99.90
2022-10-10T00:39:04.004Z,99.90
2022-10-10T00:41:34.011Z,99.90
2022-10-10T00:44:09.873Z,99.90
2022-10-10T00:46:38.357Z,99.90
2022-10-10T00:49:11.165Z,99.90
2022-10-10T00:51:39.396Z,99.90
2022-10-10T00:54:14.692Z,99.90
2022-10-10T00:56:50.203Z,99.90
2022-10-10T00:59:39.111Z,99.90
2022-10-10T01:02:07.364Z,99.90
2022-10-10T01:04:45.402Z,99.90
2022-10-10T01:07:25.800Z,99.90
2022-10-10T01:10:10.367Z,99.90
2022-10-10T01:12:45.521Z,99.90
2022-10-10T01:15:42.475Z,99.90
2022-10-10T01:18:24.640Z,99.90
2022-10-10T01:21:28.954Z,99.90
2022-10-10T01:24:28.163Z,99.90
2022-10-10T01:27:14.246Z,99.90
2022-10-10T01:30:03.934Z,99.90
2022-10-10T01:32:49.355Z,99.90
2022-10-10T01:35:30.403Z,99.90
2022-10-10T01:38:03.397Z,99.90
2022-10-10T01:41:04.479Z,99.90
2022-10-10T01:43:32.688Z,99.90
2022-10-10T01:46:00.863Z,99.90
2022-10-10T01:48:31.880Z,99.90
2022-10-10T01:51:36.135Z,99.90
2022-10-10T01:54:16.901Z,99.90
2022-10-10T01:57:24.596Z,99.90
2022-10-10T02:00:14.529Z,99.90
2022-10-10T02:02:56.950Z,99.90
2022-10-10T02:05:59.469Z,99.90
2022-10-10T02:08:36.355Z,99.90
2022-10-10T02:11:12.222Z,99.90
2022-10-10T02:13:45.268Z,99.90
2022-10-10T02:16:26.475Z,99.90
2022-10-10T02:18:56.234Z,99.90
2022-10-10T02:21:24.859Z,99.90
2022-10-10T02:23:56.531Z,99.90
2022-10-10T02:26:28.688Z,99.90
2022-10-10T02:29:05.293Z,99.90
2022-10-10T02:31:45.583Z,99.90
2022-10-10T02:34:33.877Z,99.90
2022-10-10T02:37:12.598Z,99.90
2022-10-10T02:39:56.715Z,99.90
2022-10-10T02:42:27.945Z,99.90
2022-10-10T02:44:57.796Z,99.90
2022-10-10T02:47:25.209Z,99.90
2022-10-10T02:49:52.301Z,99.90
2022-10-10T02:52:22.268Z,99.90
2022-10-10T02:54:52.483Z,99.90
2022-10-10T02:57:19.604Z,99.90
2022-10-10T02:59:46.678Z,99.90
2022-10-10T03:02:16.152Z,99.90
2022-10-10T03:04:46.166Z,99.90
2022-10-10T03:07:16.231Z,99.90
2022-10-10T03:09:44.201Z,99.90
2022-10-10T03:12:14.244Z,99.90
2022-10-10T03:14:44.345Z,99.90
2022-10-10T03:17:14.647Z,99.90
2022-10-10T03:19:41.568Z,99.90
2022-10-10T03:22:10.483Z,99.90
2022-10-10T03:24:39.379Z,99.90
2022-10-10T03:27:12.300Z,99.90
2022-10-10T03:29:41.227Z,99.90
2022-10-10T03:32:11.182Z,99.90
2022-10-10T03:34:41.440Z,99.90
2022-10-10T03:37:10.592Z,99.90
2022-10-10T03:39:37.596Z,99.90
2022-10-10T03:42:04.940Z,99.90
2022-10-10T03:44:34.938Z,99.90
2022-10-10T03:47:04.079Z,99.90
2022-10-10T03:49:36.984Z,99.90
2022-10-10T03:52:06.971Z,99.90
2022-10-10T03:54:37.337Z,99.90
2022-10-10T03:57:05.269Z,99.90
2022-10-10T03:59:35.311Z,99.90
2022-10-10T04:02:02.345Z,99.90
2022-10-10T04:04:33.480Z,99.90
2022-10-10T04:07:00.390Z,99.90
2022-10-10T04:09:27.569Z,99.90
2022-10-10T04:11:54.467Z,99.90
2022-10-10T04:14:21.709Z,99.90
2022-10-10T04:16:49.675Z,99.90
2022-10-10T04:19:18.554Z,99.90
2022-10-10T04:21:45.517Z,99.90
2022-10-10T04:24:13.574Z,99.90
2022-10-10T04:26:43.541Z,99.90
2022-10-10T04:29:12.485Z,99.90
2022-10-10T04:31:39.385Z,99.90
2022-10-10T04:34:09.294Z,99.90
2022-10-10T04:36:42.542Z,99.90
2022-10-10T04:39:11.515Z,99.90
2022-10-10T04:41:38.464Z,99.90
2022-10-10T04:44:05.427Z,99.90
2022-10-10T04:46:35.504Z,99.90
2022-10-10T04:49:04.399Z,99.90
2022-10-10T04:51:31.433Z,99.90
2022-10-10T04:54:01.530Z,99.90
2022-10-10T04:56:31.536Z,99.90
2022-10-10T04:59:00.611Z,99.90
2022-10-10T05:01:27.616Z,99.90
2022-10-10T05:03:56.083Z,99.90
2022-10-10T05:06:26.075Z,99.90
2022-10-10T05:08:54.029Z,99.90
2022-10-10T05:11:22.001Z,99.90
2022-10-10T05:13:51.045Z,99.90
2022-10-10T05:16:20.928Z,99.90
2022-10-10T05:18:50.914Z,99.90
2022-10-10T05:21:20.987Z,99.90
2022-10-10T05:23:50.890Z,99.90
2022-10-10T05:26:21.457Z,99.90
2022-10-10T05:28:49.391Z,99.90
2022-10-10T05:31:18.305Z,99.90
2022-10-10T05:33:46.399Z,99.90
2022-10-10T05:36:14.790Z,99.90
2022-10-10T05:38:42.829Z,99.90
2022-10-10T05:41:12.879Z,99.90
2022-10-10T05:43:42.845Z,99.90
2022-10-10T05:46:10.961Z,99.90
2022-10-10T05:48:47.261Z,99.90
2022-10-10T05:51:15.214Z,99.90
2022-10-10T05:53:44.184Z,99.90
2022-10-10T05:56:11.768Z,99.90
2022-10-10T05:58:40.888Z,99.90
2022-10-10T06:01:10.901Z,99.90
2022-10-10T06:03:38.080Z,99.90
2022-10-10T06:06:08.891Z,99.90
2022-10-10T06:08:38.879Z,99.90
2022-10-10T06:11:12.230Z,99.90
2022-10-10T06:13:40.336Z,99.90
2022-10-10T06:16:13.380Z,99.90
2022-10-10T06:18:43.557Z,99.90
2022-10-10T06:21:12.178Z,99.90
2022-10-10T06:23:52.636Z,99.90
2022-10-10T06:26:19.543Z,99.90
2022-10-10T06:28:50.914Z,99.90
2022-10-10T06:31:20.992Z,99.90
2022-10-10T06:33:49.194Z,99.90
2022-10-10T06:36:19.993Z,99.90
2022-10-10T06:38:47.989Z,99.90
2022-10-10T06:41:18.059Z,99.90
2022-10-10T06:43:49.115Z,99.90
2022-10-10T06:46:19.273Z,99.90
2022-10-10T06:48:47.283Z,99.90
2022-10-10T06:51:18.108Z,99.90
2022-10-10T06:53:46.440Z,99.90
2022-10-10T06:56:26.389Z,99.90
2022-10-10T06:58:54.673Z,99.90
2022-10-10T07:01:26.348Z,99.90
2022-10-10T07:03:56.365Z,99.90
2022-10-10T07:06:26.376Z,99.90
2022-10-10T07:08:56.464Z,99.90
2022-10-10T07:11:26.317Z,99.90
2022-10-10T07:13:56.319Z,99.90
2022-10-10T07:16:26.398Z,99.90
2022-10-10T07:18:55.340Z,99.90
2022-10-10T07:21:25.351Z,99.90
2022-10-10T07:23:55.361Z,99.90
2022-10-10T07:26:27.183Z,99.90
2022-10-10T07:28:58.076Z,99.90
2022-10-10T07:31:25.982Z,99.90
2022-10-10T07:33:56.028Z,99.90
2022-10-10T07:36:25.022Z,99.90
2022-10-10T07:38:55.072Z,99.90
2022-10-10T07:41:25.124Z,99.90
2022-10-10T07:43:57.246Z,99.90
2022-10-10T07:46:25.356Z,99.90
2022-10-10T07:48:52.263Z,99.90
2022-10-10T07:51:20.425Z,99.90
2022-10-10T07:53:48.448Z,99.90
2022-10-10T07:56:16.341Z,99.90
2022-10-10T07:58:46.477Z,99.90
2022-10-10T08:01:14.227Z,99.90
2022-10-10T08:03:44.221Z,99.90
2022-10-10T08:06:14.547Z,99.90
2022-10-10T08:08:50.425Z,99.90
2022-10-10T08:11:22.219Z,99.90
2022-10-10T08:13:50.328Z,99.90
2022-10-10T08:16:20.991Z,99.90
2022-10-10T08:18:51.103Z,99.90
2022-10-10T08:21:19.532Z,99.90
2022-10-10T08:23:50.350Z,99.90
2022-10-10T08:26:22.560Z,99.90
2022-10-10T08:28:50.594Z,99.90
2022-10-10T08:31:21.574Z,99.90
2022-10-10T08:33:52.042Z,99.90
2022-10-10T08:36:23.170Z,99.90
2022-10-10T08:38:59.435Z,99.90
2022-10-10T08:41:52.132Z,99.90
2022-10-10T08:44:48.765Z,99.90
2022-10-10T08:47:30.947Z,99.90
2022-10-10T08:50:23.813Z,99.90
2022-10-10T08:52:53.764Z,99.90
2022-10-10T08:55:39.620Z,99.90
2022-10-10T08:58:30.645Z,99.90
2022-10-10T09:01:15.860Z,99.90
2022-10-10T09:03:50.453Z,99.90
2022-10-10T09:06:33.936Z,99.90
2022-10-10T09:09:34.555Z,99.90
2022-10-10T09:12:07.235Z,99.90
2022-10-10T09:14:34.059Z,99.90
2022-10-10T09:17:17.099Z,99.90
2022-10-10T09:19:53.908Z,99.90
2022-10-10T09:22:32.800Z,99.90
2022-10-10T09:25:23.824Z,99.90
2022-10-10T09:28:12.813Z,99.90
2022-10-10T09:30:47.092Z,99.90
2022-10-10T09:33:15.104Z,99.90
2022-10-10T09:35:44.087Z,99.90
2022-10-10T09:38:11.046Z,99.90
2022-10-10T09:40:46.048Z,99.90
2022-10-10T09:43:19.027Z,99.90
2022-10-10T09:45:54.414Z,99.90
2022-10-10T09:48:35.056Z,99.80
2022-10-10T09:51:07.029Z,99.50
2022-10-10T09:53:35.997Z,99.70
2022-10-10T09:56:05.519Z,99.80
2022-10-10T09:58:44.597Z,99.90
2022-10-10T10:01:21.897Z,99.90
2022-10-10T10:04:27.228Z,99.90
2022-10-10T10:07:19.396Z,99.90
2022-10-10T10:10:00.992Z,99.90
2022-10-10T10:12:39.457Z,99.90
2022-10-10T10:15:28.886Z,99.90
2022-10-10T10:18:17.029Z,99.90
2022-10-10T10:21:02.738Z,99.90
2022-10-10T10:23:36.463Z,99.90
2022-10-10T10:26:14.764Z,99.90
2022-10-10T10:28:45.783Z,99.90
2022-10-10T10:31:48.473Z,99.90
2022-10-10T10:34:55.899Z,99.90
2022-10-10T10:37:28.069Z,99.90
2022-10-10T10:40:00.853Z,99.90
2022-10-10T10:43:23.067Z,99.90
2022-10-10T10:46:05.280Z,99.90
2022-10-10T10:48:45.069Z,99.90
2022-10-10T10:51:21.203Z,99.90
2022-10-10T10:54:30.313Z,99.90
2022-10-10T10:57:33.108Z,99.90
2022-10-10T11:01:19.905Z,99.90
2022-10-10T11:05:19.086Z,99.90
2022-10-10T11:06:59.984Z,99.90
2022-10-10T11:09:50.184Z,99.90
2022-10-10T11:12:57.364Z,99.90
2022-10-10T11:18:41.668Z,99.90
2022-10-10T11:21:18.902Z,99.90
2022-10-10T11:24:10.496Z,99.90
2022-10-10T11:26:48.374Z,99.90
2022-10-10T11:29:28.456Z,99.90
2022-10-10T11:32:28.236Z,99.90
2022-10-10T11:35:07.262Z,99.90
2022-10-10T11:37:40.962Z,99.90
2022-10-10T11:40:24.260Z,99.90
2022-10-10T11:43:01.385Z,99.90
2022-10-10T11:45:35.468Z,99.90
2022-10-10T11:48:05.495Z,99.90
2022-10-10T11:50:40.394Z,99.90
2022-10-10T11:53:41.046Z,99.90
2022-10-10T11:56:33.072Z,99.90
2022-10-10T11:59:15.488Z,99.90
2022-10-10T12:01:49.936Z,99.90
2022-10-10T12:04:18.477Z,99.90
2022-10-10T12:07:02.242Z,99.90
2022-10-10T12:09:45.919Z,99.90
2022-10-10T12:12:20.157Z,99.90
2022-10-10T12:14:54.196Z,99.90
2022-10-10T12:17:32.498Z,99.90
2022-10-10T12:20:35.126Z,99.90
2022-10-10T12:23:14.030Z,99.90
2022-10-10T12:25:47.697Z,99.90
2022-10-10T12:28:16.925Z,99.90
2022-10-10T12:30:58.177Z,99.90
2022-10-10T12:33:33.716Z,99.90
2022-10-10T12:36:20.940Z,99.90
2022-10-10T12:39:08.355Z,99.90
2022-10-10T12:41:58.410Z,99.90
2022-10-10T12:44:43.560Z,99.90
2022-10-10T12:47:16.896Z,99.90
2022-10-10T12:50:00.803Z,99.90
2022-10-10T12:52:46.402Z,99.90
2022-10-10T12:55:40.785Z,99.90
2022-10-10T12:58:28.353Z,99.90
2022-10-10T13:01:01.380Z,99.90
2022-10-10T13:03:46.461Z,99.90
2022-10-10T13:06:20.179Z,99.90
2022-10-10T13:08:47.787Z,99.90
2022-10-10T13:11:16.111Z,99.90
2022-10-10T13:13:56.549Z,99.90
2022-10-10T13:16:31.152Z,99.90
2022-10-10T13:19:01.276Z,99.90
2022-10-10T13:21:34.159Z,99.90
2022-10-10T13:24:05.178Z,99.90
2022-10-10T13:26:40.075Z,99.90
2022-10-10T13:29:31.487Z,99.90
2022-10-10T13:32:06.588Z,99.90
2022-10-10T13:34:43.156Z,99.90
2022-10-10T13:37:17.120Z,99.90
2022-10-10T13:39:47.624Z,99.90
2022-10-10T13:42:32.739Z,99.90
2022-10-10T13:45:01.548Z,99.90
2022-10-10T13:47:50.788Z,99.90
2022-10-10T13:50:25.975Z,99.90
2022-10-10T13:53:24.476Z,99.90
2022-10-10T13:56:02.061Z,99.90
2022-10-10T13:58:50.779Z,99.90
2022-10-10T14:01:29.744Z,99.90
2022-10-10T14:04:04.275Z,99.90
2022-10-10T14:06:34.694Z,99.90
2022-10-10T14:09:13.848Z,99.90
2022-10-10T14:11:43.928Z,99.90
2022-10-10T14:14:23.226Z,99.90
2022-10-10T14:17:04.771Z,99.90
2022-10-10T14:19:33.908Z,99.90
2022-10-10T14:22:02.968Z,99.90
2022-10-10T14:24:29.912Z,99.90
2022-10-10T14:26:58.236Z,99.90
2022-10-10T14:29:29.552Z,99.90
2022-10-10T14:31:56.605Z,99.90
2022-10-10T14:34:26.530Z,99.90
2022-10-10T14:36:59.559Z,99.90
2022-10-10T14:39:29.729Z,99.90
2022-10-10T14:41:57.247Z,99.90
2022-10-10T14:44:25.256Z,99.90
2022-10-10T14:46:53.219Z,99.90
2022-10-10T14:49:21.608Z,99.90
2022-10-10T14:51:48.819Z,99.90
2022-10-10T14:54:17.903Z,99.90
2022-10-10T14:57:07.774Z,99.90
2022-10-10T14:59:48.283Z,99.90
2022-10-10T15:02:22.491Z,99.90
2022-10-10T15:04:50.752Z,99.90
2022-10-10T15:07:20.799Z,99.90
2022-10-10T15:10:30.866Z,99.90
2022-10-10T15:12:40.714Z,99.90
2022-10-10T15:15:09.302Z,99.90
2022-10-10T15:17:36.776Z,99.90
2022-10-10T15:20:07.708Z,99.90
2022-10-10T15:22:37.805Z,99.90
2022-10-10T15:25:06.292Z,99.80
2022-10-10T15:27:34.990Z,99.30
2022-10-10T15:30:05.878Z,99.90
2022-10-10T15:32:32.741Z,99.90
2022-10-10T15:35:02.892Z,99.80
2022-10-10T15:37:33.001Z,99.80
2022-10-10T15:40:00.996Z,99.60
2022-10-10T15:42:31.393Z,99.30
2022-10-10T15:44:58.353Z,99.20
2022-10-10T15:47:25.313Z,98.70
2022-10-10T15:49:53.525Z,98.90
2022-10-10T15:52:23.313Z,99.30
2022-10-10T15:54:53.624Z,99.50
2022-10-10T15:57:22.246Z,99.70
2022-10-10T15:59:50.071Z,99.50
2022-10-10T16:02:17.555Z,99.00
2022-10-10T16:04:46.212Z,99.10
2022-10-10T16:07:28.329Z,99.00
2022-10-10T16:10:01.438Z,99.30
2022-10-10T16:12:31.431Z,99.40
2022-10-10T16:15:02.320Z,99.30
2022-10-10T16:17:36.220Z,99.60
2022-10-10T16:20:04.558Z,99.70
2022-10-10T16:22:34.558Z,99.50
2022-10-10T16:27:54.857Z,99.40
2022-10-10T16:30:24.937Z,99.30
2022-10-10T16:32:54.950Z,99.40
2022-10-10T16:35:25.774Z,99.80
2022-10-10T16:37:55.002Z,99.90
2022-10-10T16:40:24.900Z,99.90
2022-10-10T16:42:52.011Z,99.90
2022-10-10T16:45:18.890Z,99.90
2022-10-10T16:47:45.920Z,99.90
2022-10-10T16:50:16.079Z,99.90
2022-10-10T16:52:45.916Z,99.90
2022-10-10T16:55:12.911Z,99.90
2022-10-10T16:57:40.858Z,99.90
2022-10-10T17:00:09.063Z,99.90
2022-10-10T17:02:38.724Z,99.60
2022-10-10T17:05:11.739Z,99.90
2022-10-10T17:07:41.772Z,99.90
2022-10-10T17:10:09.456Z,99.90
2022-10-10T17:12:37.512Z,99.80
2022-10-10T17:15:07.990Z,99.70
2022-10-10T17:17:40.913Z,99.90
2022-10-10T17:20:11.652Z,99.90
2022-10-10T17:22:41.617Z,99.80
2022-10-10T17:25:14.717Z,99.90
2022-10-10T17:27:44.930Z,99.90
2022-10-10T17:30:12.806Z,99.90
2022-10-10T17:32:48.848Z,99.90
2022-10-10T17:35:16.916Z,99.90
2022-10-10T17:37:46.883Z,99.90
2022-10-10T17:40:16.317Z,99.90
2022-10-10T17:42:46.529Z,99.90
2022-10-10T17:45:15.683Z,99.90
2022-10-10T17:47:45.739Z,99.90
2022-10-10T17:50:18.733Z,99.90
2022-10-10T17:52:47.819Z,99.90
2022-10-10T17:55:15.886Z,99.90
2022-10-10T17:57:49.000Z,99.90
2022-10-10T18:00:16.366Z,99.90
2022-10-10T18:02:43.255Z,99.90
2022-10-10T18:05:10.172Z,99.90
2022-10-10T18:07:37.119Z,99.90
2022-10-10T18:10:04.912Z,99.90
2022-10-10T18:12:32.036Z,99.90
2022-10-10T18:15:00.592Z,99.90
2022-10-10T18:17:27.494Z,99.90
2022-10-10T18:19:54.425Z,99.90
2022-10-10T18:22:21.435Z,99.90
2022-10-10T18:24:48.347Z,99.90
2022-10-10T18:27:15.207Z,99.90
2022-10-10T18:29:42.516Z,99.90
2022-10-10T18:32:09.587Z,99.90
2022-10-10T18:34:36.592Z,99.90
2022-10-10T18:37:04.843Z,99.90
2022-10-10T18:39:33.919Z,99.90
2022-10-10T18:42:00.996Z,99.90
2022-10-10T18:44:28.033Z,99.90
2022-10-10T18:46:55.165Z,99.90
2022-10-10T18:49:22.156Z,99.90
2022-10-10T18:51:48.987Z,99.90
2022-10-10T18:54:17.750Z,99.90
2022-10-10T18:56:45.897Z,99.90
2022-10-10T18:59:16.870Z,99.90
2022-10-10T19:01:45.857Z,99.90
2022-10-10T19:04:14.860Z,99.90
2022-10-10T19:06:43.052Z,99.90
2022-10-10T19:09:12.363Z,99.90
2022-10-10T19:11:41.232Z,99.90
2022-10-10T19:14:11.006Z,99.90
2022-10-10T19:16:39.477Z,99.90
2022-10-10T19:19:06.615Z,99.90
2022-10-10T19:21:35.916Z,99.90
2022-10-10T19:24:04.825Z,99.90
2022-10-10T19:26:33.429Z,99.90
2022-10-10T19:29:06.479Z,99.90
2022-10-10T19:31:34.292Z,99.90
2022-10-10T19:34:01.499Z,99.90
2022-10-10T19:36:29.096Z,99.90
2022-10-10T19:38:58.669Z,99.90
2022-10-10T19:41:26.838Z,99.90
2022-10-10T19:43:53.987Z,99.90
2022-10-10T19:46:22.868Z,99.90
2022-10-10T19:48:50.478Z,99.90
2022-10-10T19:51:18.689Z,99.90
2022-10-10T19:53:46.520Z,99.90
2022-10-10T19:56:24.477Z,99.90
2022-10-10T19:58:53.114Z,99.90
2022-10-10T20:01:20.467Z,99.90
2022-10-10T20:03:49.505Z,99.90
2022-10-10T20:06:19.088Z,99.90
2022-10-10T20:08:46.376Z,99.90
2022-10-10T20:11:13.528Z,99.90
2022-10-10T20:13:41.033Z,99.90
2022-10-10T20:16:11.733Z,99.90
2022-10-10T20:18:42.212Z,99.90
2022-10-10T20:21:17.068Z,99.90
2022-10-10T20:23:48.235Z,99.80
2022-10-10T20:26:18.191Z,99.70
2022-10-10T20:28:49.225Z,99.90
2022-10-10T20:31:24.934Z,99.90
2022-10-10T20:33:53.807Z,99.90
2022-10-10T20:36:22.666Z,99.30
2022-10-10T20:39:12.875Z,99.00
2022-10-10T20:41:41.877Z,99.50
2022-10-10T20:44:12.095Z,99.70
2022-10-10T20:46:42.203Z,99.90
2022-10-10T20:49:20.899Z,99.90
2022-10-10T20:51:51.881Z,99.90
2022-10-10T20:54:21.193Z,99.90
2022-10-10T20:56:49.988Z,99.90
2022-10-10T20:59:19.422Z,99.90
2022-10-10T21:01:47.824Z,99.90
2022-10-10T21:04:17.876Z,99.90
2022-10-10T21:06:45.834Z,99.90
2022-10-10T21:09:16.009Z,99.90
2022-10-10T21:11:48.688Z,99.90
2022-10-10T21:14:17.783Z,99.90
2022-10-10T21:16:45.173Z,99.90
2022-10-10T21:19:15.516Z,99.90
2022-10-10T21:21:44.504Z,99.90
2022-10-10T21:24:14.217Z,99.90
2022-10-10T21:26:42.989Z,99.90
2022-10-10T21:29:11.072Z,99.90
2022-10-10T21:31:39.771Z,99.90
2022-10-10T21:34:13.461Z,99.90
2022-10-10T21:36:43.731Z,99.90
2022-10-10T21:39:14.855Z,99.90
2022-10-10T21:41:47.802Z,99.90
2022-10-10T21:44:16.706Z,99.90
2022-10-10T21:46:43.719Z,99.90
2022-10-10T21:49:12.888Z,99.90
2022-10-10T21:51:45.544Z,99.90
2022-10-10T21:54:15.828Z,99.90
2022-10-10T21:56:43.953Z,99.90
2022-10-10T21:59:12.385Z,99.90
2022-10-10T22:01:40.504Z,99.90
2022-10-10T22:04:07.394Z,99.90
2022-10-10T22:06:35.560Z,99.90
2022-10-10T22:09:08.531Z,99.90
2022-10-10T22:11:37.533Z,99.90
2022-10-10T22:14:06.491Z,99.90
2022-10-10T22:16:36.449Z,99.90
2022-10-10T22:19:06.564Z,99.90
2022-10-10T22:21:35.011Z,99.90
2022-10-10T22:24:08.193Z,99.90
2022-10-10T22:26:36.517Z,99.90
2022-10-10T22:29:04.999Z,99.90
2022-10-10T22:31:38.264Z,99.90
2022-10-10T22:34:06.566Z,99.90
2022-10-10T22:36:36.532Z,99.90
2022-10-10T22:39:04.179Z,99.90
2022-10-10T22:41:34.155Z,99.90
2022-10-10T22:44:03.325Z,99.90
2022-10-10T22:46:30.455Z,99.90
2022-10-10T22:49:00.472Z,99.90
2022-10-10T22:51:30.423Z,99.90
2022-10-10T22:54:00.505Z,99.90
2022-10-10T22:56:35.542Z,99.90
2022-10-10T22:59:05.538Z,99.90
2022-10-10T23:01:33.528Z,99.90
2022-10-10T23:04:09.462Z,99.90
2022-10-10T23:06:39.653Z,99.90
2022-10-10T23:09:11.837Z,99.90
2022-10-10T23:11:41.829Z,99.90
2022-10-10T23:14:11.854Z,99.90
2022-10-10T23:16:40.924Z,99.90
2022-10-10T23:19:09.014Z,99.90
2022-10-10T23:21:36.023Z,99.90
2022-10-10T23:24:03.109Z,99.90
2022-10-10T23:26:31.071Z,99.90
2022-10-10T23:28:58.306Z,99.90
2022-10-10T23:31:27.366Z,99.90
2022-10-10T23:34:00.427Z,99.90
2022-10-10T23:36:30.547Z,99.90
2022-10-10T23:39:00.580Z,99.90
2022-10-10T23:41:30.897Z,99.90
2022-10-10T23:43:58.867Z,99.90
2022-10-10T23:46:28.881Z,99.90
2022-10-10T23:48:59.021Z,99.90
2022-10-10T23:51:29.557Z,99.90
2022-10-10T23:53:59.503Z,99.90
2022-10-10T23:56:26.487Z,99.90
2022-10-10T23:58:55.581Z,99.90
